Wetterdaten: Jahr 2018
Datum Temp Feuchte Luftdruck Regen Wind W.Richtung SonenZeit UV-Index Solar Windben
01.01.2018 4,7 C 77 % 998,0 hPa 3,4 l/m 11,1 km/h SW 2,33 h 0,0 UV-I 84 W/m 20,9 km/h
02.01.2018 3,0 C 85 % 1007,2 hPa 10,4 l/m 7,8 km/h W-SW 0,00 h 0,0 UV-I 37 W/m 17,3 km/h
03.01.2018 4,7 C 84 % 989,9 hPa 19,2 l/m 18,8 km/h W-SW 0,00 h 0,0 UV-I 23 W/m 38,6 km/h
04.01.2018 6,4 C 78 % 992,0 hPa 4,0 l/m 13,1 km/h W-SW 0,00 h 0,0 UV-I 43 W/m 26,6 km/h
05.01.2018 5,1 C 81 % 997,0 hPa 0,4 l/m 6,0 km/h W-SW 0,38 h 0,0 UV-I 69 W/m 13,7 km/h
06.01.2018 3,4 C 83 % 1010,4 hPa 0,0 l/m 1,8 km/h SW 0,50 h 0,0 UV-I 65 W/m 5,2 km/h
07.01.2018 -0,4 C 84 % 1026,3 hPa 1,8 l/m 6,9 km/h O-NO 0,00 h 0,0 UV-I 44 W/m 18,9 km/h
08.01.2018 0,6 C 78 % 1024,1 hPa 0,2 l/m 9,7 km/h O 2,25 h 0,0 UV-I 91 W/m 27,8 km/h
09.01.2018 2,8 C 84 % 1011,7 hPa 0,0 l/m 4,3 km/h SO 0,00 h 0,0 UV-I 62 W/m 9,3 km/h
10.01.2018 4,1 C 80 % 1010,4 hPa 0,2 l/m 1,6 km/h S 2,50 h 0,0 UV-I 100 W/m 4,4 km/h
11.01.2018 4,5 C 86 % 1017,7 hPa 0,0 l/m 0,0 km/h N 0,00 h 0,0 UV-I 50 W/m 0,0 km/h
12.01.2018 3,5 C 88 % 1025,7 hPa 0,2 l/m 0,2 km/h O 0,00 h 0,0 UV-I 31 W/m 2,4 km/h
13.01.2018 1,6 C 81 % 1025,1 hPa 0,0 l/m 2,3 km/h SO 0,33 h 0,0 UV-I 57 W/m 9,7 km/h
14.01.2018 -0,3 C 72 % 1021,8 hPa 0,0 l/m 7,5 km/h SO 4,75 h 0,0 UV-I 134 W/m 18,5 km/h
15.01.2018 1,7 C 79 % 1002,1 hPa 1,4 l/m 14,6 km/h S 0,42 h 0,0 UV-I 63 W/m 32,2 km/h
16.01.2018 1,6 C 85 % 991,4 hPa 10,8 l/m 12,5 km/h W-SW 0,00 h 0,0 UV-I 35 W/m 25,3 km/h
17.01.2018 -0,0 C 88 % 1000,1 hPa 11,2 l/m 8,4 km/h W-SW 0,08 h 0,0 UV-I 40 W/m 16,5 km/h
18.01.2018 1,4 C 84 % 996,2 hPa 3,2 l/m 17,1 km/h W-SW 0,08 h 0,0 UV-I 35 W/m 34,2 km/h
19.01.2018 0,0 C 88 % 1006,8 hPa 6,6 l/m 2,9 km/h W-SW 0,00 h 0,0 UV-I 32 W/m 6,0 km/h
20.01.2018 0,2 C 88 % 1002,1 hPa 2,0 l/m 2,0 km/h SW 1,67 h 0,0 UV-I 108 W/m 6,4 km/h
21.01.2018 -0,2 C 88 % 1013,6 hPa 7,4 l/m 0,4 km/h W-SW 0,00 h 0,0 UV-I 53 W/m 4,0 km/h
22.01.2018 2,4 C 89 % 1009,4 hPa 4,0 l/m 6,8 km/h W 0,00 h 0,0 UV-I 33 W/m 17,3 km/h
23.01.2018 4,5 C 86 % 1019,5 hPa 1,0 l/m 4,6 km/h SW 0,00 h 0,0 UV-I 68 W/m 12,1 km/h
24.01.2018 10,4 C 73 % 1012,6 hPa 0,4 l/m 14,7 km/h SW 0,42 h 0,0 UV-I 81 W/m 31,8 km/h
25.01.2018 5,8 C 85 % 1011,8 hPa 5,2 l/m 2,1 km/h SW 0,00 h 0,0 UV-I 51 W/m 6,9 km/h
26.01.2018 3,5 C 87 % 1019,9 hPa 0,6 l/m 0,0 km/h W 0,08 h 0,0 UV-I 66 W/m 0,0 km/h
27.01.2018 3,4 C 82 % 1028,2 hPa 0,0 l/m 4,1 km/h SW 1,25 h 0,0 UV-I 74 W/m 8,4 km/h
28.01.2018 7,1 C 86 % 1027,4 hPa 2,0 l/m 13,3 km/h W-SW 0,00 h 0,0 UV-I 26 W/m 27,4 km/h
29.01.2018 6,7 C 84 % 1022,0 hPa 4,0 l/m 16,4 km/h W-SW 0,00 h 0,0 UV-I 22 W/m 37,0 km/h
30.01.2018 1,3 C 84 % 1025,0 hPa 0,2 l/m 4,2 km/h W-SW 0,17 h 0,0 UV-I 69 W/m 9,3 km/h
31.01.2018 4,4 C 85 % 1002,3 hPa 11,8 l/m 11,4 km/h SW 0,08 h 0,0 UV-I 50 W/m 23,7 km/h
01.02.2018 1,1 C 80 % 999,5 hPa 1,2 l/m 5,4 km/h SW 1,92 h 0,0 UV-I 109 W/m 14,1 km/h
02.02.2018 1,5 C 88 % 1002,3 hPa 3,8 l/m 7,4 km/h SW 0,00 h 0,0 UV-I 29 W/m 17,7 km/h
03.02.2018 0,2 C 86 % 1005,5 hPa 0,4 l/m 1,4 km/h W-SW 0,17 h 0,0 UV-I 57 W/m 4,0 km/h
04.02.2018 -3,9 C 82 % 1020,8 hPa 1,4 l/m 0,3 km/h N-NW 0,00 h 0,0 UV-I 34 W/m 2,8 km/h
05.02.2018 -1,7 C 74 % 1025,5 hPa 0,0 l/m 3,5 km/h O 3,25 h 0,5 UV-I 138 W/m 10,9 km/h
06.02.2018 -3,3 C 75 % 1014,5 hPa 0,0 l/m 1,4 km/h SO 1,42 h 0,0 UV-I 114 W/m 9,3 km/h
07.02.2018 -3,5 C 76 % 1016,4 hPa 0,0 l/m 0,0 km/h O-NO 3,50 h 0,5 UV-I 151 W/m 0,0 km/h
08.02.2018 -5,6 C 77 % 1019,9 hPa 0,0 l/m 0,0 km/h N 5,17 h 0,0 UV-I 159 W/m 0,0 km/h
09.02.2018 -4,7 C 78 % 1014,6 hPa 0,0 l/m 2,0 km/h S 6,75 h 0,0 UV-I 184 W/m 4,4 km/h
10.02.2018 -0,2 C 86 % 1013,8 hPa 0,8 l/m 2,4 km/h SW 0,00 h 0,0 UV-I 54 W/m 6,4 km/h
11.02.2018 0,8 C 82 % 1001,6 hPa 2,2 l/m 8,1 km/h SW 0,08 h 0,0 UV-I 58 W/m 18,9 km/h
12.02.2018 -0,7 C 85 % 1012,6 hPa 5,8 l/m 5,3 km/h W-SW 2,42 h 0,5 UV-I 123 W/m 10,9 km/h
13.02.2018 -2,1 C 74 % 1013,6 hPa 0,0 l/m 4,0 km/h S 7,75 h 0,7 UV-I 232 W/m 11,7 km/h
14.02.2018 -1,8 C 63 % 1017,6 hPa 0,0 l/m 4,7 km/h SO 7,75 h 0,7 UV-I 233 W/m 14,1 km/h
15.02.2018 0,6 C 79 % 1014,2 hPa 1,2 l/m 3,6 km/h S-SO 0,00 h 0,0 UV-I 67 W/m 8,9 km/h
16.02.2018 -0,4 C 82 % 1024,9 hPa 0,0 l/m 1,6 km/h W-SW 3,58 h 0,7 UV-I 147 W/m 4,4 km/h
17.02.2018 -2,2 C 80 % 1024,3 hPa 0,2 l/m 0,1 km/h O 0,50 h 0,0 UV-I 123 W/m 1,6 km/h
18.02.2018 -1,6 C 73 % 1026,1 hPa 0,2 l/m 1,8 km/h S 7,08 h 0,7 UV-I 231 W/m 5,2 km/h
19.02.2018 -1,8 C 76 % 1019,0 hPa 0,0 l/m 0,9 km/h S-SW 3,75 h 0,6 UV-I 165 W/m 3,2 km/h
20.02.2018 -0,9 C 70 % 1019,6 hPa 0,0 l/m 0,1 km/h O-NO 7,00 h 0,7 UV-I 218 W/m 1,6 km/h
21.02.2018 -1,9 C 72 % 1024,3 hPa 0,0 l/m 0,6 km/h O-NO 6,17 h 0,7 UV-I 213 W/m 2,8 km/h
22.02.2018 -2,0 C 71 % 1023,7 hPa 0,0 l/m 3,9 km/h O-NO 7,58 h 0,7 UV-I 238 W/m 12,9 km/h
23.02.2018 -3,1 C 59 % 1023,2 hPa 0,0 l/m 6,1 km/h O 7,67 h 0,9 UV-I 243 W/m 14,9 km/h
24.02.2018 -4,2 C 58 % 1027,6 hPa 0,0 l/m 9,9 km/h O 4,42 h 0,7 UV-I 162 W/m 22,9 km/h
25.02.2018 -6,4 C 66 % 1029,8 hPa 0,0 l/m 3,2 km/h O-NO 6,75 h 0,8 UV-I 233 W/m 11,2 km/h
26.02.2018 -5,9 C 75 % 1026,4 hPa 0,2 l/m 5,3 km/h O-NO 5,25 h 0,8 UV-I 212 W/m 15,7 km/h
27.02.2018 -7,4 C 72 % 1021,3 hPa 0,0 l/m 3,5 km/h O-NO 6,08 h 0,8 UV-I 254 W/m 10,5 km/h
28.02.2018 -10,2 C 64 % 1021,8 hPa 0,2 l/m 7,4 km/h O 5,33 h 0,7 UV-I 206 W/m 19,3 km/h
01.03.2018 -7,2 C 54 % 1010,3 hPa 0,0 l/m 9,1 km/h O 8,42 h 0,9 UV-I 264 W/m 29,0 km/h
02.03.2018 -6,7 C 59 % 1001,2 hPa 0,0 l/m 6,6 km/h O 8,25 h 0,8 UV-I 270 W/m 18,1 km/h
03.03.2018 -5,5 C 72 % 1000,2 hPa 0,0 l/m 6,2 km/h SO 0,00 h 0,0 UV-I 98 W/m 16,5 km/h
04.03.2018 1,2 C 80 % 997,4 hPa 0,4 l/m 3,1 km/h SO 3,58 h 0,8 UV-I 186 W/m 14,5 km/h
05.03.2018 2,6 C 74 % 994,8 hPa 0,2 l/m 0,9 km/h S 8,50 h 0,8 UV-I 265 W/m 3,6 km/h
06.03.2018 4,2 C 69 % 990,8 hPa 0,2 l/m 0,2 km/h S-SW 7,42 h 0,7 UV-I 258 W/m 1,6 km/h
07.03.2018 5,6 C 72 % 994,6 hPa 0,0 l/m 1,7 km/h W-SW 3,42 h 0,8 UV-I 199 W/m 3,6 km/h
08.03.2018 3,7 C 78 % 1000,3 hPa 4,0 l/m 9,8 km/h SW 3,08 h 0,8 UV-I 186 W/m 20,5 km/h
09.03.2018 4,9 C 72 % 1005,8 hPa 0,4 l/m 4,2 km/h W-SW 3,08 h 1,0 UV-I 203 W/m 11,3 km/h
10.03.2018 9,8 C 80 % 1001,0 hPa 3,6 l/m 0,7 km/h S 2,58 h 0,9 UV-I 192 W/m 4,4 km/h
11.03.2018 10,1 C 77 % 994,7 hPa 0,0 l/m 1,6 km/h SO 0,67 h 0,6 UV-I 125 W/m 6,4 km/h
12.03.2018 8,3 C 80 % 992,7 hPa 0,8 l/m 3,0 km/h W-SW 0,92 h 0,7 UV-I 119 W/m 10,1 km/h
13.03.2018 4,4 C 85 % 1002,8 hPa 7,6 l/m 8,9 km/h SW 0,00 h 0,6 UV-I 78 W/m 21,3 km/h
14.03.2018 2,2 C 77 % 1010,0 hPa 0,2 l/m 2,3 km/h W-SW 1,83 h 0,6 UV-I 149 W/m 10,5 km/h
15.03.2018 4,2 C 71 % 999,9 hPa 0,0 l/m 9,7 km/h SO 8,25 h 1,1 UV-I 291 W/m 22,9 km/h
16.03.2018 -1,1 C 86 % 1004,8 hPa 8,8 l/m 8,7 km/h O 0,00 h 0,0 UV-I 80 W/m 20,9 km/h
17.03.2018 -5,6 C 74 % 1008,7 hPa 0,2 l/m 10,8 km/h O 0,50 h 0,6 UV-I 134 W/m 22,1 km/h
18.03.2018 -4,4 C 55 % 1012,0 hPa 0,0 l/m 8,3 km/h O 5,00 h 1,2 UV-I 250 W/m 23,3 km/h
19.03.2018 -4,4 C 56 % 1014,5 hPa 0,0 l/m 3,3 km/h O 10,42 h 1,3 UV-I 342 W/m 10,5 km/h
20.03.2018 -0,7 C 65 % 1020,8 hPa 0,8 l/m 2,5 km/h NW 4,50 h 1,2 UV-I 232 W/m 8,1 km/h
21.03.2018 -0,7 C 73 % 1026,4 hPa 0,0 l/m 1,9 km/h W-SW 8,33 h 1,2 UV-I 301 W/m 5,2 km/h
22.03.2018 2,8 C 88 % 1012,4 hPa 4,0 l/m 5,6 km/h W-SW 0,00 h 0,0 UV-I 40 W/m 12,5 km/h
23.03.2018 4,0 C 89 % 1005,0 hPa 1,0 l/m 0,4 km/h W-SW 0,00 h 0,0 UV-I 62 W/m 2,0 km/h
24.03.2018 2,9 C 75 % 1003,4 hPa 0,2 l/m 0,0 km/h SO 3,58 h 1,1 UV-I 193 W/m 0,0 km/h
25.03.2018 5,3 C 64 % 1008,1 hPa 0,0 l/m 0,0 km/h N-NW 5,58 h 1,2 UV-I 251 W/m 0,4 km/h
26.03.2018 4,2 C 70 % 1014,3 hPa 0,0 l/m 1,0 km/h W-NW 5,33 h 1,3 UV-I 284 W/m 3,6 km/h
27.03.2018 4,5 C 76 % 1010,2 hPa 1,2 l/m 0,3 km/h SO 2,67 h 1,1 UV-I 214 W/m 2,8 km/h
28.03.2018 5,6 C 86 % 998,0 hPa 9,4 l/m 3,7 km/h W-SW 0,00 h 0,6 UV-I 69 W/m 10,1 km/h
29.03.2018 1,8 C 81 % 1005,7 hPa 2,2 l/m 4,4 km/h W-SW 2,92 h 0,9 UV-I 156 W/m 8,0 km/h
30.03.2018 6,9 C 66 % 1001,4 hPa 0,0 l/m 4,3 km/h SO 6,42 h 1,4 UV-I 304 W/m 15,7 km/h
31.03.2018 5,7 C 76 % 999,0 hPa 0,2 l/m 3,9 km/h W-NW 1,58 h 1,0 UV-I 167 W/m 11,3 km/h
01.04.2018 2,8 C 78 % 1008,2 hPa 1,2 l/m 3,1 km/h W-NW 1,50 h 0,6 UV-I 128 W/m 10,1 km/h
02.04.2018 7,1 C 67 % 1006,0 hPa 1,2 l/m 5,7 km/h S-SO 4,58 h 1,1 UV-I 236 W/m 12,9 km/h
03.04.2018 11,6 C 67 % 1001,3 hPa 1,6 l/m 1,2 km/h SW 2,50 h 1,1 UV-I 184 W/m 4,8 km/h
04.04.2018 9,3 C 72 % 1000,8 hPa 2,0 l/m 1,5 km/h SW 2,17 h 1,1 UV-I 140 W/m 7,2 km/h
05.04.2018 4,4 C 77 % 1012,8 hPa 0,8 l/m 8,9 km/h SW 0,83 h 0,7 UV-I 103 W/m 20,1 km/h
06.04.2018 6,2 C 54 % 1020,0 hPa 0,2 l/m 3,6 km/h SO 11,42 h 2,0 UV-I 393 W/m 12,1 km/h
07.04.2018 13,5 C 46 % 1011,3 hPa 0,0 l/m 1,8 km/h SO 11,08 h 2,0 UV-I 395 W/m 7,7 km/h
08.04.2018 15,2 C 50 % 1006,7 hPa 0,0 l/m 0,5 km/h SO 10,00 h 1,6 UV-I 361 W/m 2,0 km/h
09.04.2018 15,3 C 56 % 1002,9 hPa 0,0 l/m 0,2 km/h O 5,67 h 1,0 UV-I 263 W/m 3,6 km/h
10.04.2018 15,9 C 56 % 1002,0 hPa 0,0 l/m 0,7 km/h O-NO 9,75 h 1,3 UV-I 357 W/m 6,0 km/h
11.04.2018 11,0 C 78 % 1005,9 hPa 0,0 l/m 3,5 km/h O 3,58 h 1,0 UV-I 182 W/m 8,1 km/h
12.04.2018 14,1 C 69 % 1000,8 hPa 1,0 l/m 5,2 km/h O 6,08 h 1,7 UV-I 315 W/m 11,7 km/h
13.04.2018 10,4 C 87 % 1006,8 hPa 18,8 l/m 6,4 km/h W-SW 0,00 h 0,0 UV-I 48 W/m 13,3 km/h
14.04.2018 11,8 C 75 % 1016,7 hPa 0,0 l/m 1,6 km/h W-SW 4,42 h 1,3 UV-I 245 W/m 4,0 km/h
15.04.2018 13,2 C 74 % 1011,8 hPa 3,0 l/m 1,0 km/h S-SO 2,83 h 1,8 UV-I 221 W/m 4,0 km/h
16.04.2018 12,8 C 67 % 1015,1 hPa 0,0 l/m 3,0 km/h W-NW 9,00 h 1,7 UV-I 358 W/m 5,6 km/h
17.04.2018 13,2 C 62 % 1025,3 hPa 0,0 l/m 1,3 km/h SW 10,08 h 2,1 UV-I 376 W/m 3,2 km/h
18.04.2018 15,9 C 57 % 1030,0 hPa 0,0 l/m 0,0 km/h SO 11,83 h 2,4 UV-I 400 W/m 0,0 km/h
19.04.2018 18,9 C 45 % 1026,8 hPa 0,0 l/m 1,4 km/h SO 12,08 h 2,5 UV-I 413 W/m 3,6 km/h
20.04.2018 18,7 C 57 % 1020,8 hPa 0,0 l/m 0,4 km/h W-NW 11,83 h 2,6 UV-I 397 W/m 2,4 km/h
21.04.2018 15,9 C 61 % 1018,9 hPa 0,0 l/m 0,2 km/h W-NW 11,67 h 2,3 UV-I 393 W/m 2,0 km/h
22.04.2018 15,8 C 72 % 1011,3 hPa 3,8 l/m 1,1 km/h W-SW 6,58 h 2,0 UV-I 314 W/m 7,3 km/h
23.04.2018 13,7 C 67 % 1013,5 hPa 2,8 l/m 4,3 km/h W 4,42 h 1,9 UV-I 282 W/m 12,4 km/h
24.04.2018 10,9 C 74 % 1013,5 hPa 0,0 l/m 4,3 km/h W-SW 0,75 h 1,0 UV-I 160 W/m 8,9 km/h
25.04.2018 11,5 C 66 % 1009,2 hPa 2,2 l/m 7,6 km/h W-SW 1,08 h 1,7 UV-I 172 W/m 17,7 km/h
26.04.2018 6,7 C 78 % 1014,8 hPa 5,4 l/m 5,6 km/h W-SW 3,25 h 1,3 UV-I 211 W/m 10,1 km/h
27.04.2018 10,1 C 62 % 1010,6 hPa 0,2 l/m 0,6 km/h SO 10,67 h 1,7 UV-I 349 W/m 2,8 km/h
28.04.2018 13,0 C 62 % 1010,1 hPa 0,0 l/m 1,7 km/h W 4,92 h 1,9 UV-I 306 W/m 4,0 km/h
29.04.2018 14,2 C 71 % 1005,0 hPa 1,8 l/m 1,6 km/h O 6,00 h 2,5 UV-I 255 W/m 6,8 km/h
30.04.2018 12,1 C 63 % 999,3 hPa 0,2 l/m 6,2 km/h SW 1,67 h 1,4 UV-I 153 W/m 19,4 km/h
01.05.2018 7,9 C 60 % 1010,3 hPa 0,0 l/m 8,0 km/h SW 5,75 h 2,0 UV-I 293 W/m 16,9 km/h
02.05.2018 9,3 C 63 % 1011,8 hPa 0,0 l/m 0,3 km/h SO 8,08 h 1,8 UV-I 318 W/m 2,0 km/h
03.05.2018 11,3 C 57 % 1017,2 hPa 0,0 l/m 1,1 km/h NW 9,42 h 2,5 UV-I 393 W/m 6,0 km/h
04.05.2018 11,4 C 58 % 1022,6 hPa 0,0 l/m 0,4 km/h O-NO 13,00 h 2,6 UV-I 445 W/m 4,4 km/h
05.05.2018 13,0 C 53 % 1024,6 hPa 0,0 l/m 1,9 km/h O-NO 13,08 h 2,8 UV-I 450 W/m 8,8 km/h
06.05.2018 16,6 C 51 % 1022,8 hPa 0,0 l/m 2,1 km/h O 13,17 h 3,0 UV-I 452 W/m 13,3 km/h
07.05.2018 17,2 C 48 % 1017,9 hPa 0,0 l/m 2,2 km/h O-SO 13,25 h 3,0 UV-I 457 W/m 6,8 km/h
08.05.2018 18,9 C 47 % 1010,3 hPa 0,0 l/m 3,5 km/h O 13,33 h 3,0 UV-I 457 W/m 11,6 km/h
09.05.2018 18,9 C 55 % 1005,9 hPa 0,0 l/m 1,7 km/h O 11,00 h 2,4 UV-I 397 W/m 3,6 km/h
10.05.2018 13,6 C 75 % 1011,4 hPa 0,2 l/m 3,8 km/h W 0,42 h 1,1 UV-I 163 W/m 8,9 km/h
11.05.2018 13,6 C 70 % 1018,0 hPa 0,2 l/m 0,0 km/h W 3,83 h 2,0 UV-I 300 W/m 3,2 km/h
12.05.2018 17,4 C 66 % 1013,0 hPa 0,0 l/m 0,1 km/h SO 8,92 h 2,4 UV-I 382 W/m 1,6 km/h
13.05.2018 17,1 C 75 % 1009,0 hPa 0,4 l/m 1,7 km/h O-SO 6,75 h 2,6 UV-I 306 W/m 10,0 km/h
14.05.2018 18,2 C 51 % 1010,9 hPa 0,0 l/m 1,4 km/h O-NO 10,75 h 2,2 UV-I 388 W/m 6,4 km/h
15.05.2018 16,5 C 53 % 1013,3 hPa 0,4 l/m 1,4 km/h O-NO 9,08 h 2,1 UV-I 372 W/m 9,3 km/h
16.05.2018 12,2 C 86 % 1014,3 hPa 6,0 l/m 3,2 km/h W-NW 2,08 h 1,2 UV-I 155 W/m 8,4 km/h
17.05.2018 11,1 C 70 % 1018,5 hPa 0,0 l/m 7,8 km/h W-NW 7,75 h 2,6 UV-I 376 W/m 21,3 km/h
18.05.2018 11,7 C 65 % 1020,1 hPa 0,0 l/m 2,7 km/h W-NW 4,33 h 2,2 UV-I 271 W/m 10,1 km/h
19.05.2018 11,5 C 68 % 1021,5 hPa 0,0 l/m 0,0 km/h O-NO 3,08 h 1,5 UV-I 258 W/m 0,4 km/h
20.05.2018 16,4 C 56 % 1021,1 hPa 0,0 l/m 2,0 km/h O-NO 12,92 h 2,8 UV-I 450 W/m 10,1 km/h
21.05.2018 18,1 C 47 % 1014,7 hPa 0,0 l/m 3,8 km/h O 13,83 h 2,7 UV-I 459 W/m 12,9 km/h
22.05.2018 17,7 C 64 % 1012,5 hPa 0,2 l/m 0,0 km/h SO 6,50 h 2,5 UV-I 269 W/m 0,0 km/h
23.05.2018 18,7 C 53 % 1018,6 hPa 0,0 l/m 1,6 km/h O-NO 8,67 h 2,3 UV-I 334 W/m 10,1 km/h
24.05.2018 15,9 C 76 % 1018,3 hPa 1,8 l/m 4,0 km/h O 1,67 h 1,6 UV-I 200 W/m 15,3 km/h
25.05.2018 19,3 C 69 % 1017,9 hPa 0,2 l/m 1,0 km/h O 8,33 h 2,4 UV-I 365 W/m 4,4 km/h
26.05.2018 21,0 C 54 % 1019,5 hPa 0,0 l/m 0,5 km/h O 12,08 h 2,9 UV-I 415 W/m 4,0 km/h
27.05.2018 20,3 C 63 % 1017,0 hPa 0,2 l/m 0,9 km/h O 9,42 h 3,0 UV-I 364 W/m 6,4 km/h
28.05.2018 23,1 C 59 % 1016,0 hPa 0,0 l/m 1,2 km/h O 10,33 h 3,1 UV-I 404 W/m 3,2 km/h
29.05.2018 21,6 C 70 % 1010,8 hPa 6,6 l/m 1,9 km/h O 10,25 h 3,1 UV-I 389 W/m 7,3 km/h
30.05.2018 21,3 C 71 % 1013,0 hPa 2,6 l/m 0,3 km/h W-SW 6,50 h 2,4 UV-I 331 W/m 1,6 km/h
31.05.2018 21,2 C 76 % 1012,7 hPa 4,8 l/m 0,2 km/h O-NO 8,92 h 3,2 UV-I 356 W/m 1,2 km/h
01.06.2018 19,9 C 78 % 1013,8 hPa 3,6 l/m 1,3 km/h W 7,33 h 2,4 UV-I 321 W/m 8,5 km/h
02.06.2018 17,5 C 78 % 1016,4 hPa 1,6 l/m 3,0 km/h W 3,17 h 1,7 UV-I 191 W/m 8,5 km/h
03.06.2018 18,5 C 75 % 1016,3 hPa 0,0 l/m 0,2 km/h NW 3,25 h 1,5 UV-I 242 W/m 1,6 km/h
04.06.2018 19,8 C 68 % 1011,4 hPa 0,0 l/m 0,1 km/h NW 10,75 h 2,7 UV-I 409 W/m 1,6 km/h
05.06.2018 17,5 C 72 % 1012,1 hPa 0,0 l/m 0,4 km/h NW 7,17 h 3,0 UV-I 314 W/m 2,0 km/h
06.06.2018 20,5 C 63 % 1012,8 hPa 0,0 l/m 0,5 km/h O 13,50 h 3,0 UV-I 447 W/m 6,4 km/h
07.06.2018 23,2 C 53 % 1012,7 hPa 0,0 l/m 0,7 km/h O 9,92 h 3,2 UV-I 397 W/m 6,9 km/h
08.06.2018 21,2 C 73 % 1011,5 hPa 0,0 l/m 0,9 km/h NW 5,25 h 1,8 UV-I 245 W/m 3,6 km/h
09.06.2018 21,9 C 73 % 1010,3 hPa 0,2 l/m 0,5 km/h W-NW 5,25 h 3,2 UV-I 312 W/m 2,0 km/h
10.06.2018 20,3 C 74 % 1010,1 hPa 6,0 l/m 0,9 km/h NW 4,25 h 2,5 UV-I 270 W/m 4,4 km/h
11.06.2018 18,4 C 64 % 1010,3 hPa 0,0 l/m 0,9 km/h N-NW 6,17 h 3,8 UV-I 330 W/m 5,6 km/h
12.06.2018 15,3 C 67 % 1010,9 hPa 0,0 l/m 3,6 km/h NW 2,67 h 2,6 UV-I 253 W/m 9,7 km/h
13.06.2018 13,3 C 67 % 1014,3 hPa 0,0 l/m 2,4 km/h NW 0,33 h 1,2 UV-I 148 W/m 8,8 km/h
14.06.2018 14,4 C 74 % 1014,7 hPa 2,0 l/m 1,9 km/h W-SW 9,00 h 3,6 UV-I 417 W/m 4,4 km/h
15.06.2018 18,4 C 68 % 1015,3 hPa 1,2 l/m 0,1 km/h W-SW 4,33 h 2,4 UV-I 304 W/m 0,8 km/h
16.06.2018 20,2 C 64 % 1012,8 hPa 0,0 l/m 0,3 km/h SW 5,25 h 1,9 UV-I 249 W/m 2,0 km/h
17.06.2018 16,3 C 62 % 1016,0 hPa 0,2 l/m 4,4 km/h W 6,08 h 2,2 UV-I 283 W/m 12,5 km/h
18.06.2018 17,2 C 71 % 1019,0 hPa 0,0 l/m 4,0 km/h W-SW 0,67 h 1,9 UV-I 168 W/m 8,1 km/h
19.06.2018 17,5 C 75 % 1021,8 hPa 0,2 l/m 2,0 km/h W-SW 1,00 h 1,8 UV-I 153 W/m 7,7 km/h
20.06.2018 21,7 C 62 % 1017,8 hPa 0,0 l/m 0,5 km/h W-SW 7,00 h 2,9 UV-I 327 W/m 4,4 km/h
21.06.2018 14,4 C 62 % 1016,0 hPa 4,2 l/m 10,1 km/h W-NW 4,08 h 2,9 UV-I 247 W/m 22,1 km/h
22.06.2018 11,3 C 75 % 1021,5 hPa 8,4 l/m 7,9 km/h W-NW 3,67 h 2,2 UV-I 209 W/m 18,5 km/h
23.06.2018 12,8 C 69 % 1023,0 hPa 2,0 l/m 6,4 km/h W-NW 1,92 h 2,2 UV-I 194 W/m 16,1 km/h
24.06.2018 11,2 C 86 % 1020,7 hPa 1,8 l/m 3,2 km/h W-NW 0,17 h 1,2 UV-I 127 W/m 8,1 km/h
25.06.2018 15,6 C 71 % 1021,9 hPa 1,4 l/m 5,3 km/h W-NW 1,08 h 1,7 UV-I 191 W/m 14,5 km/h
26.06.2018 14,6 C 74 % 1023,9 hPa 0,0 l/m 0,5 km/h W-NW 4,08 h 1,9 UV-I 215 W/m 2,4 km/h
27.06.2018 18,2 C 61 % 1023,2 hPa 0,0 l/m 1,2 km/h O-NO 10,83 h 3,4 UV-I 431 W/m 4,0 km/h
28.06.2018 20,1 C 60 % 1020,0 hPa 0,0 l/m 1,1 km/h O-NO 11,83 h 3,3 UV-I 413 W/m 5,2 km/h
29.06.2018 21,8 C 52 % 1015,5 hPa 0,0 l/m 0,3 km/h NW 14,08 h 3,8 UV-I 463 W/m 2,0 km/h
30.06.2018 19,3 C 44 % 1015,5 hPa 0,0 l/m 1,4 km/h O 14,33 h 3,9 UV-I 479 W/m 9,3 km/h
01.07.2018 18,3 C 42 % 1017,2 hPa 0,0 l/m 3,1 km/h O 14,33 h 3,8 UV-I 475 W/m 14,5 km/h
02.07.2018 19,0 C 42 % 1016,1 hPa 0,0 l/m 0,8 km/h O-NO 14,33 h 3,7 UV-I 474 W/m 6,1 km/h
03.07.2018 21,4 C 46 % 1014,9 hPa 0,0 l/m 0,9 km/h W-NW 14,25 h 3,7 UV-I 473 W/m 2,8 km/h
04.07.2018 22,7 C 60 % 1011,9 hPa 0,0 l/m 1,0 km/h W-SW 9,00 h 2,7 UV-I 341 W/m 3,2 km/h
05.07.2018 21,8 C 60 % 1011,3 hPa 0,0 l/m 0,8 km/h W-NW 9,00 h 2,5 UV-I 337 W/m 5,6 km/h
06.07.2018 18,9 C 51 % 1017,9 hPa 0,0 l/m 3,5 km/h W-NW 7,00 h 3,4 UV-I 319 W/m 11,6 km/h
07.07.2018 18,3 C 51 % 1021,1 hPa 0,0 l/m 2,6 km/h W-NW 14,08 h 3,8 UV-I 451 W/m 9,3 km/h
08.07.2018 19,5 C 55 % 1021,3 hPa 0,0 l/m 1,9 km/h W-NW 12,50 h 3,7 UV-I 450 W/m 7,2 km/h
09.07.2018 15,9 C 72 % 1019,3 hPa 0,0 l/m 5,2 km/h W-NW 5,25 h 2,4 UV-I 245 W/m 10,9 km/h
10.07.2018 11,4 C 86 % 1014,0 hPa 25,0 l/m 4,5 km/h W-SW 0,25 h 0,9 UV-I 81 W/m 9,3 km/h
11.07.2018 13,2 C 88 % 1014,8 hPa 4,6 l/m 0,6 km/h W-SW 0,17 h 0,8 UV-I 81 W/m 4,4 km/h
12.07.2018 18,4 C 72 % 1016,6 hPa 0,0 l/m 1,0 km/h W-NW 3,08 h 2,6 UV-I 253 W/m 5,3 km/h
13.07.2018 19,1 C 66 % 1018,4 hPa 0,0 l/m 2,0 km/h NW 8,67 h 3,7 UV-I 386 W/m 5,6 km/h
14.07.2018 19,9 C 62 % 1017,5 hPa 0,0 l/m 1,2 km/h W-NW 13,17 h 3,4 UV-I 456 W/m 3,2 km/h
15.07.2018 19,8 C 55 % 1015,0 hPa 0,0 l/m 0,4 km/h NW 14,00 h 3,5 UV-I 467 W/m 2,4 km/h
16.07.2018 22,9 C 49 % 1011,5 hPa 0,0 l/m 0,8 km/h W-NW 13,58 h 3,3 UV-I 459 W/m 4,4 km/h
17.07.2018 23,0 C 51 % 1012,4 hPa 0,0 l/m 2,6 km/h W-NW 12,17 h 3,2 UV-I 429 W/m 7,2 km/h
18.07.2018 20,6 C 54 % 1016,4 hPa 0,0 l/m 3,9 km/h W-NW 12,25 h 3,1 UV-I 441 W/m 8,5 km/h
19.07.2018 20,0 C 52 % 1016,3 hPa 0,0 l/m 0,0 km/h NW 12,58 h 3,2 UV-I 445 W/m 0,4 km/h
20.07.2018 22,6 C 49 % 1010,9 hPa 0,0 l/m 0,7 km/h S 10,83 h 2,8 UV-I 414 W/m 3,2 km/h
21.07.2018 22,3 C 55 % 1009,4 hPa 0,0 l/m 0,3 km/h W-NW 1,50 h 1,7 UV-I 193 W/m 2,0 km/h
22.07.2018 22,3 C 59 % 1012,6 hPa 0,0 l/m 1,9 km/h W 9,00 h 2,8 UV-I 363 W/m 6,0 km/h
23.07.2018 22,7 C 55 % 1015,2 hPa 0,0 l/m 0,0 km/h W-NW 12,92 h 3,5 UV-I 441 W/m 0,4 km/h
24.07.2018 25,0 C 53 % 1012,7 hPa 0,0 l/m 0,7 km/h S 13,67 h 3,5 UV-I 446 W/m 2,8 km/h
25.07.2018 25,5 C 53 % 1013,3 hPa 0,0 l/m 0,0 km/h O 8,67 h 3,0 UV-I 382 W/m 0,4 km/h
26.07.2018 27,0 C 46 % 1013,8 hPa 0,0 l/m 0,0 km/h O 14,08 h 3,1 UV-I 428 W/m 0,0 km/h
27.07.2018 26,0 C 47 % 1010,7 hPa 0,0 l/m 2,0 km/h O 12,08 h 3,1 UV-I 427 W/m 10,9 km/h
28.07.2018 20,4 C 71 % 1008,2 hPa 4,0 l/m 0,8 km/h W-SW 4,92 h 1,6 UV-I 231 W/m 7,7 km/h
29.07.2018 22,5 C 59 % 1012,6 hPa 0,0 l/m 3,2 km/h S 5,92 h 3,0 UV-I 296 W/m 6,4 km/h
30.07.2018 24,8 C 56 % 1013,7 hPa 0,0 l/m 0,2 km/h S 7,83 h 3,0 UV-I 330 W/m 1,6 km/h
31.07.2018 26,1 C 53 % 1014,8 hPa 0,0 l/m 2,6 km/h NW 12,33 h 3,3 UV-I 409 W/m 10,9 km/h
01.08.2018 24,6 C 54 % 1018,7 hPa 14,8 l/m 0,4 km/h O-NO 8,75 h 3,2 UV-I 374 W/m 4,4 km/h
02.08.2018 24,8 C 61 % 1020,6 hPa 1,4 l/m 0,0 km/h O-NO 11,42 h 3,6 UV-I 431 W/m 0,8 km/h
03.08.2018 26,4 C 54 % 1018,5 hPa 0,0 l/m 0,1 km/h NW 12,83 h 3,6 UV-I 427 W/m 1,6 km/h
04.08.2018 25,3 C 55 % 1016,7 hPa 0,0 l/m 3,3 km/h NW 9,75 h 3,3 UV-I 382 W/m 8,9 km/h
05.08.2018 21,3 C 56 % 1019,5 hPa 0,0 l/m 1,3 km/h NW 8,92 h 3,2 UV-I 386 W/m 2,4 km/h
06.08.2018 23,2 C 50 % 1014,3 hPa 0,0 l/m 0,7 km/h S-SO 12,58 h 3,5 UV-I 431 W/m 2,8 km/h
07.08.2018 26,4 C 51 % 1007,9 hPa 0,0 l/m 0,4 km/h S 9,42 h 3,0 UV-I 364 W/m 2,0 km/h
08.08.2018 22,5 C 64 % 1011,3 hPa 3,4 l/m 0,5 km/h W 4,83 h 2,7 UV-I 249 W/m 4,0 km/h
09.08.2018 21,5 C 66 % 1009,8 hPa 6,8 l/m 7,4 km/h SW 5,08 h 2,7 UV-I 261 W/m 19,3 km/h
10.08.2018 17,3 C 54 % 1019,4 hPa 0,0 l/m 4,9 km/h W-SW 6,25 h 2,5 UV-I 335 W/m 11,7 km/h
11.08.2018 16,0 C 57 % 1020,2 hPa 0,2 l/m 5,8 km/h W 6,00 h 2,2 UV-I 322 W/m 10,9 km/h
12.08.2018 19,1 C 48 % 1013,3 hPa 0,0 l/m 0,9 km/h SW 12,00 h 3,1 UV-I 413 W/m 2,8 km/h
13.08.2018 15,9 C 75 % 1006,3 hPa 1,8 l/m 0,0 km/h N 2,17 h 1,4 UV-I 145 W/m 0,0 km/h
14.08.2018 17,4 C 73 % 1012,7 hPa 5,8 l/m 0,0 km/h N 2,08 h 1,5 UV-I 148 W/m 0,0 km/h
15.08.2018 18,7 C 67 % 1017,9 hPa 0,0 l/m 0,0 km/h N 3,00 h 2,2 UV-I 223 W/m 0,0 km/h
16.08.2018 22,4 C 58 % 1014,0 hPa 0,0 l/m 0,0 km/h N 11,25 h 3,0 UV-I 400 W/m 0,0 km/h
17.08.2018 18,8 C 68 % 1016,3 hPa 0,0 l/m 0,0 km/h N 6,08 h 2,4 UV-I 299 W/m 0,0 km/h
18.08.2018 18,1 C 57 % 1020,6 hPa 0,0 l/m 0,0 km/h N 11,83 h 3,0 UV-I 410 W/m 0,0 km/h
19.08.2018 20,1 C 58 % 1018,0 hPa 0,0 l/m 0,0 km/h N 11,92 h 2,9 UV-I 396 W/m 0,0 km/h
20.08.2018 19,5 C 73 % 1017,6 hPa 0,0 l/m 1,2 km/h W-SW 0,58 h 1,9 UV-I 134 W/m 4,8 km/h
21.08.2018 18,4 C 70 % 1019,1 hPa 0,0 l/m 0,0 km/h N 3,67 h 1,4 UV-I 186 W/m 0,0 km/h
22.08.2018 23,0 C 56 % 1014,8 hPa 0,0 l/m 0,0 km/h W 8,67 h 2,6 UV-I 345 W/m 0,0 km/h
23.08.2018 21,5 C 62 % 1009,9 hPa 0,0 l/m 0,0 km/h N 10,00 h 2,5 UV-I 351 W/m 0,0 km/h
24.08.2018 16,3 C 61 % 1009,5 hPa 0,8 l/m 0,0 km/h W 2,33 h 1,8 UV-I 219 W/m 0,8 km/h
25.08.2018 11,9 C 69 % 1010,1 hPa 0,4 l/m 0,0 km/h N 2,08 h 1,6 UV-I 201 W/m 0,0 km/h
26.08.2018 13,7 C 59 % 1014,0 hPa 0,0 l/m 0,0 km/h W 5,83 h 2,3 UV-I 305 W/m 0,0 km/h
27.08.2018 15,7 C 69 % 1011,6 hPa 1,4 l/m 0,0 km/h N 2,00 h 1,1 UV-I 142 W/m 0,0 km/h
28.08.2018 16,8 C 61 % 1017,7 hPa 0,0 l/m 0,0 km/h N 6,50 h 2,1 UV-I 297 W/m 0,0 km/h
29.08.2018 18,5 C 69 % 1011,7 hPa 0,2 l/m 0,0 km/h N 8,42 h 2,4 UV-I 336 W/m 0,0 km/h
30.08.2018 14,3 C 80 % 1018,0 hPa 8,4 l/m 0,0 km/h N 1,42 h 1,8 UV-I 167 W/m 0,0 km/h
31.08.2018 13,4 C 68 % 1021,8 hPa 0,0 l/m 0,0 km/h N 5,50 h 1,9 UV-I 277 W/m 0,0 km/h
01.09.2018 12,7 C 65 % 1025,2 hPa 0,0 l/m 0,7 km/h NW 8,58 h 2,5 UV-I 345 W/m 2,4 km/h
02.09.2018 16,1 C 64 % 1022,9 hPa 0,0 l/m 3,9 km/h NO 5,67 h 2,7 UV-I 263 W/m 11,2 km/h
03.09.2018 17,3 C 84 % 1015,9 hPa 3,6 l/m 0,5 km/h NO 2,08 h 1,3 UV-I 164 W/m 1,6 km/h
04.09.2018 19,7 C 70 % 1015,2 hPa 0,0 l/m 0,6 km/h W 6,33 h 2,2 UV-I 284 W/m 1,6 km/h
05.09.2018 18,9 C 61 % 1014,9 hPa 0,0 l/m 1,1 km/h O-NO 11,00 h 2,8 UV-I 382 W/m 5,6 km/h
06.09.2018 16,1 C 77 % 1010,1 hPa 1,6 l/m 1,5 km/h W-SW 3,67 h 1,6 UV-I 172 W/m 2,8 km/h
07.09.2018 12,9 C 72 % 1013,0 hPa 0,0 l/m 3,2 km/h W-SW 2,58 h 1,6 UV-I 163 W/m 6,0 km/h
08.09.2018 14,1 C 61 % 1018,9 hPa 0,0 l/m 2,3 km/h SW 7,58 h 2,5 UV-I 319 W/m 3,6 km/h
09.09.2018 15,9 C 62 % 1019,8 hPa 0,0 l/m 2,2 km/h SW 7,33 h 2,6 UV-I 294 W/m 4,8 km/h
10.09.2018 16,1 C 68 % 1020,5 hPa 0,0 l/m 2,9 km/h W-SW 2,58 h 2,0 UV-I 207 W/m 5,2 km/h
11.09.2018 19,0 C 58 % 1019,7 hPa 0,0 l/m 5,9 km/h SW 8,92 h 3,0 UV-I 336 W/m 11,3 km/h
12.09.2018 17,2 C 69 % 1018,9 hPa 0,0 l/m 3,6 km/h SW 6,75 h 2,9 UV-I 331 W/m 8,0 km/h
13.09.2018 12,5 C 86 % 1019,5 hPa 3,8 l/m 0,3 km/h NO 0,00 h 1,1 UV-I 103 W/m 1,6 km/h
14.09.2018 12,0 C 71 % 1019,4 hPa 0,2 l/m 1,0 km/h W-SW 5,83 h 2,3 UV-I 290 W/m 2,4 km/h
15.09.2018 12,8 C 71 % 1022,9 hPa 0,0 l/m 2,2 km/h SW 2,42 h 1,8 UV-I 194 W/m 5,6 km/h
16.09.2018 14,0 C 65 % 1021,0 hPa 0,0 l/m 1,1 km/h SW 8,42 h 2,4 UV-I 319 W/m 2,4 km/h
17.09.2018 15,7 C 63 % 1017,3 hPa 0,0 l/m 0,5 km/h SW 9,92 h 2,3 UV-I 316 W/m 2,0 km/h
18.09.2018 21,5 C 50 % 1012,8 hPa 0,0 l/m 2,2 km/h S 10,25 h 2,4 UV-I 351 W/m 5,2 km/h
19.09.2018 19,2 C 63 % 1015,9 hPa 0,0 l/m 2,6 km/h SW 9,50 h 2,2 UV-I 310 W/m 4,8 km/h
20.09.2018 17,6 C 64 % 1013,8 hPa 0,0 l/m 2,4 km/h SW 8,50 h 2,2 UV-I 309 W/m 5,2 km/h
21.09.2018 12,8 C 68 % 1008,1 hPa 1,6 l/m 8,7 km/h SW 1,08 h 0,7 UV-I 89 W/m 16,1 km/h
22.09.2018 10,5 C 77 % 1017,7 hPa 3,2 l/m 9,3 km/h W-SW 2,50 h 1,5 UV-I 184 W/m 18,1 km/h
23.09.2018 8,2 C 88 % 1012,2 hPa 13,2 l/m 3,7 km/h NW 0,00 h 0,8 UV-I 62 W/m 9,3 km/h
24.09.2018 7,5 C 77 % 1030,7 hPa 1,8 l/m 7,0 km/h W 4,42 h 1,6 UV-I 234 W/m 14,5 km/h
25.09.2018 7,7 C 75 % 1037,7 hPa 0,0 l/m 1,6 km/h W 4,67 h 2,0 UV-I 261 W/m 3,2 km/h
26.09.2018 10,1 C 61 % 1032,1 hPa 0,2 l/m 3,5 km/h W-SW 9,17 h 2,2 UV-I 269 W/m 8,4 km/h
27.09.2018 14,5 C 53 % 1024,0 hPa 0,0 l/m 0,9 km/h SW 8,08 h 2,7 UV-I 311 W/m 2,0 km/h
28.09.2018 8,1 C 73 % 1025,2 hPa 0,2 l/m 1,9 km/h NW 1,25 h 1,5 UV-I 137 W/m 7,6 km/h
29.09.2018 5,7 C 67 % 1026,3 hPa 0,2 l/m 1,0 km/h NO 9,92 h 2,1 UV-I 327 W/m 3,6 km/h
30.09.2018 8,0 C 64 % 1015,4 hPa 0,0 l/m 0,6 km/h SW 9,92 h 1,9 UV-I 331 W/m 2,0 km/h
01.10.2018 7,0 C 82 % 1016,6 hPa 4,0 l/m 6,3 km/h W 3,08 h 1,3 UV-I 176 W/m 16,5 km/h
02.10.2018 7,8 C 87 % 1015,5 hPa 5,2 l/m 10,1 km/h SW 0,00 h 0,0 UV-I 38 W/m 20,1 km/h
03.10.2018 9,6 C 70 % 1023,1 hPa 0,0 l/m 6,3 km/h W 4,67 h 1,6 UV-I 225 W/m 13,7 km/h
04.10.2018 8,6 C 82 % 1025,3 hPa 1,2 l/m 1,3 km/h SW 1,00 h 0,9 UV-I 97 W/m 4,0 km/h
05.10.2018 11,5 C 70 % 1017,2 hPa 0,0 l/m 1,9 km/h S-SO 9,50 h 2,0 UV-I 297 W/m 3,6 km/h
06.10.2018 14,4 C 72 % 1008,2 hPa 0,2 l/m 1,3 km/h S-SO 7,92 h 1,7 UV-I 271 W/m 2,8 km/h
07.10.2018 8,5 C 73 % 1018,5 hPa 0,0 l/m 2,3 km/h NW 5,67 h 1,5 UV-I 245 W/m 6,8 km/h
08.10.2018 8,6 C 72 % 1021,4 hPa 0,0 l/m 1,3 km/h W-SW 8,58 h 1,7 UV-I 275 W/m 2,4 km/h
09.10.2018 11,6 C 77 % 1021,3 hPa 0,0 l/m 0,7 km/h S-SO 6,25 h 1,5 UV-I 225 W/m 2,4 km/h
10.10.2018 15,3 C 70 % 1017,0 hPa 0,2 l/m 6,3 km/h O-NO 9,17 h 1,7 UV-I 283 W/m 18,9 km/h
11.10.2018 17,3 C 61 % 1013,1 hPa 0,0 l/m 3,6 km/h O-SO 8,33 h 1,5 UV-I 271 W/m 9,6 km/h
12.10.2018 18,0 C 66 % 1019,8 hPa 0,0 l/m 4,2 km/h S-SO 8,67 h 1,5 UV-I 267 W/m 8,1 km/h
13.10.2018 19,3 C 56 % 1017,8 hPa 0,0 l/m 4,3 km/h SO 8,17 h 1,6 UV-I 264 W/m 11,3 km/h
14.10.2018 18,2 C 56 % 1010,4 hPa 0,0 l/m 4,6 km/h SO 8,75 h 1,4 UV-I 270 W/m 12,5 km/h
15.10.2018 15,4 C 64 % 1013,0 hPa 0,0 l/m 1,7 km/h O-SO 8,08 h 1,3 UV-I 252 W/m 3,2 km/h
16.10.2018 13,1 C 81 % 1018,3 hPa 0,2 l/m 0,0 km/h O-NO 2,00 h 0,7 UV-I 118 W/m 0,0 km/h
17.10.2018 13,9 C 71 % 1018,4 hPa 0,0 l/m 0,2 km/h W-SW 5,75 h 1,3 UV-I 214 W/m 1,2 km/h
18.10.2018 11,1 C 81 % 1022,6 hPa 0,4 l/m 1,4 km/h NW 1,08 h 1,0 UV-I 108 W/m 4,8 km/h
19.10.2018 10,1 C 77 % 1024,1 hPa 0,0 l/m 1,1 km/h NO 5,25 h 1,1 UV-I 183 W/m 3,6 km/h
20.10.2018 6,4 C 76 % 1029,6 hPa 0,2 l/m 1,6 km/h W-NW 4,33 h 1,3 UV-I 198 W/m 4,4 km/h
21.10.2018 7,1 C 74 % 1027,5 hPa 0,0 l/m 0,4 km/h S-SO 7,50 h 1,3 UV-I 234 W/m 1,2 km/h
22.10.2018 6,2 C 82 % 1029,7 hPa 1,2 l/m 1,4 km/h NW 0,92 h 0,8 UV-I 90 W/m 4,4 km/h
23.10.2018 8,0 C 87 % 1019,8 hPa 3,8 l/m 15,9 km/h W-SW 0,00 h 0,0 UV-I 30 W/m 30,2 km/h
24.10.2018 10,4 C 89 % 1019,7 hPa 16,2 l/m 9,4 km/h W-NW 0,33 h 0,8 UV-I 71 W/m 20,9 km/h
25.10.2018 9,4 C 89 % 1015,2 hPa 3,8 l/m 10,3 km/h W-SW 0,00 h 0,5 UV-I 45 W/m 18,9 km/h
26.10.2018 7,6 C 85 % 1004,8 hPa 2,8 l/m 9,8 km/h SW 0,00 h 0,5 UV-I 43 W/m 20,5 km/h
27.10.2018 4,3 C 83 % 1008,1 hPa 0,0 l/m 5,8 km/h W-SW 0,33 h 0,9 UV-I 73 W/m 10,8 km/h
28.10.2018 2,9 C 83 % 1013,2 hPa 0,2 l/m 5,8 km/h NO 0,42 h 0,6 UV-I 108 W/m 16,1 km/h
29.10.2018 2,9 C 87 % 999,8 hPa 0,6 l/m 9,1 km/h NO 0,00 h 0,0 UV-I 42 W/m 18,5 km/h
30.10.2018 5,5 C 83 % 993,5 hPa 3,4 l/m 17,0 km/h S-SO 0,00 h 0,0 UV-I 47 W/m 30,6 km/h
31.10.2018 7,1 C 73 % 1014,3 hPa 0,0 l/m 3,2 km/h S 5,50 h 0,8 UV-I 174 W/m 10,1 km/h
01.11.2018 6,6 C 78 % 1010,7 hPa 0,2 l/m 2,4 km/h O-NO 0,00 h 0,5 UV-I 80 W/m 7,6 km/h
02.11.2018 7,7 C 75 % 1023,3 hPa 0,2 l/m 6,5 km/h SW 1,75 h 0,8 UV-I 105 W/m 12,4 km/h
03.11.2018 3,8 C 76 % 1026,8 hPa 0,0 l/m 1,9 km/h SO 7,08 h 0,9 UV-I 198 W/m 8,1 km/h
04.11.2018 7,8 C 84 % 1015,6 hPa 0,0 l/m 5,3 km/h O-SO 0,00 h 0,5 UV-I 69 W/m 12,1 km/h
05.11.2018 9,3 C 86 % 1007,5 hPa 0,0 l/m 2,7 km/h SO 1,58 h 0,6 UV-I 105 W/m 7,2 km/h
06.11.2018 9,4 C 81 % 1007,6 hPa 0,2 l/m 1,0 km/h SO 2,83 h 0,7 UV-I 131 W/m 3,2 km/h
07.11.2018 9,6 C 77 % 1010,9 hPa 1,0 l/m 2,8 km/h SO 7,00 h 0,7 UV-I 189 W/m 6,8 km/h
08.11.2018 6,5 C 83 % 1019,7 hPa 0,2 l/m 1,2 km/h W-SW 2,67 h 0,6 UV-I 105 W/m 2,4 km/h
09.11.2018 9,9 C 82 % 1012,1 hPa 0,2 l/m 5,5 km/h SO 1,92 h 0,5 UV-I 115 W/m 14,1 km/h
10.11.2018 10,0 C 81 % 1005,2 hPa 0,8 l/m 9,3 km/h S-SO 0,00 h 0,0 UV-I 39 W/m 19,7 km/h
11.11.2018 10,7 C 80 % 1009,0 hPa 3,2 l/m 6,1 km/h S-SO 1,42 h 0,7 UV-I 103 W/m 12,5 km/h
12.11.2018 11,4 C 82 % 1014,8 hPa 1,4 l/m 5,5 km/h S-SO 3,75 h 0,7 UV-I 166 W/m 9,6 km/h
13.11.2018 8,9 C 78 % 1023,8 hPa 1,0 l/m 10,6 km/h SW 2,17 h 0,5 UV-I 101 W/m 19,3 km/h
14.11.2018 7,1 C 82 % 1027,5 hPa 0,0 l/m 3,2 km/h SO 5,83 h 0,7 UV-I 172 W/m 10,9 km/h
15.11.2018 3,7 C 87 % 1026,3 hPa 0,0 l/m 7,0 km/h O-SO 0,00 h 0,0 UV-I 67 W/m 18,1 km/h
16.11.2018 4,5 C 78 % 1029,9 hPa 0,0 l/m 6,2 km/h O-SO 6,25 h 0,6 UV-I 165 W/m 14,9 km/h
17.11.2018 2,5 C 73 % 1032,3 hPa 0,0 l/m 6,8 km/h O-NO 6,17 h 0,6 UV-I 165 W/m 20,9 km/h
18.11.2018 1,6 C 67 % 1027,5 hPa 0,0 l/m 8,5 km/h NO 4,08 h 0,5 UV-I 141 W/m 18,5 km/h
19.11.2018 2,0 C 80 % 1017,6 hPa 0,6 l/m 8,9 km/h NO 0,33 h 0,0 UV-I 55 W/m 18,9 km/h
20.11.2018 0,1 C 85 % 1011,1 hPa 0,4 l/m 9,4 km/h O-NO 0,00 h 0,0 UV-I 25 W/m 23,3 km/h
21.11.2018 0,5 C 86 % 1018,3 hPa 2,8 l/m 5,2 km/h O-NO 0,00 h 0,0 UV-I 51 W/m 12,1 km/h
22.11.2018 0,6 C 86 % 1020,3 hPa 0,6 l/m 4,9 km/h O-NO 0,00 h 0,0 UV-I 27 W/m 12,1 km/h
23.11.2018 0,2 C 87 % 1017,1 hPa 0,0 l/m 0,7 km/h O-SO 4,50 h 0,0 UV-I 123 W/m 2,0 km/h
24.11.2018 1,5 C 89 % 1011,2 hPa 1,6 l/m 1,4 km/h SO 0,00 h 0,0 UV-I 36 W/m 5,2 km/h
25.11.2018 3,3 C 90 % 1009,9 hPa 1,0 l/m 3,9 km/h NO 0,00 h 0,0 UV-I 40 W/m 8,4 km/h
26.11.2018 1,9 C 86 % 1012,7 hPa 0,0 l/m 4,6 km/h NO 0,00 h 0,0 UV-I 57 W/m 11,3 km/h
27.11.2018 -0,4 C 79 % 1020,8 hPa 0,0 l/m 2,9 km/h O-NO 3,25 h 0,0 UV-I 93 W/m 8,5 km/h
28.11.2018 1,5 C 80 % 1020,9 hPa 1,8 l/m 8,2 km/h SO 2,08 h 0,0 UV-I 96 W/m 20,1 km/h
29.11.2018 4,4 C 78 % 1013,9 hPa 1,2 l/m 9,8 km/h SO 0,00 h 0,0 UV-I 41 W/m 26,1 km/h
30.11.2018 4,3 C 86 % 1012,0 hPa 0,2 l/m 1,9 km/h S-SO 0,58 h 0,0 UV-I 81 W/m 4,4 km/h
01.12.2018 6,1 C 82 % 1011,6 hPa 0,2 l/m 6,9 km/h S-SO 1,50 h 0,0 UV-I 84 W/m 13,7 km/h
02.12.2018 8,5 C 87 % 1000,3 hPa 15,8 l/m 10,5 km/h SW 0,00 h 0,0 UV-I 26 W/m 20,7 km/h
03.12.2018 9,9 C 87 % 999,1 hPa 19,2 l/m 10,4 km/h SW 0,67 h 0,0 UV-I 62 W/m 19,3 km/h
04.12.2018 3,9 C 84 % 1016,4 hPa 3,8 l/m 5,3 km/h W-NW 1,58 h 0,0 UV-I 82 W/m 11,2 km/h
05.12.2018 0,6 C 86 % 1023,4 hPa 0,2 l/m 4,4 km/h SO 1,25 h 0,0 UV-I 84 W/m 10,0 km/h
06.12.2018 6,8 C 88 % 1014,9 hPa 2,0 l/m 7,8 km/h SW 0,00 h 0,0 UV-I 20 W/m 15,6 km/h
07.12.2018 9,2 C 84 % 1004,8 hPa 7,2 l/m 13,2 km/h SW 0,00 h 0,0 UV-I 27 W/m 24,6 km/h
08.12.2018 5,5 C 82 % 1000,0 hPa 9,6 l/m 17,8 km/h SW 0,08 h 0,0 UV-I 27 W/m 32,8 km/h
09.12.2018 5,0 C 87 % 997,3 hPa 16,4 l/m 15,0 km/h W-SW 0,00 h 0,0 UV-I 22 W/m 29,1 km/h
10.12.2018 2,2 C 86 % 1015,7 hPa 3,0 l/m 13,5 km/h W 0,50 h 0,0 UV-I 56 W/m 26,0 km/h
11.12.2018 1,9 C 89 % 1020,3 hPa 3,4 l/m 8,5 km/h W 0,00 h 0,0 UV-I 23 W/m 16,8 km/h
12.12.2018 1,3 C 87 % 1024,2 hPa 0,2 l/m 2,1 km/h NO 0,83 h 0,0 UV-I 62 W/m 6,0 km/h
13.12.2018 -0,3 C 84 % 1021,7 hPa 0,0 l/m 4,9 km/h O-NO 0,25 h 0,0 UV-I 58 W/m 11,7 km/h
14.12.2018 -0,8 C 78 % 1022,9 hPa 0,0 l/m 3,9 km/h O-NO 0,00 h 0,0 UV-I 41 W/m 10,2 km/h
15.12.2018 -1,8 C 69 % 1024,1 hPa 0,0 l/m 6,5 km/h O-SO 0,00 h 0,0 UV-I 47 W/m 15,4 km/h
16.12.2018 -2,5 C 81 % 1012,7 hPa 1,0 l/m 5,7 km/h O-SO 0,00 h 0,0 UV-I 41 W/m 13,5 km/h
17.12.2018 0,9 C 89 % 1018,6 hPa 2,6 l/m 3,1 km/h SW 0,25 h 0,0 UV-I 42 W/m 7,0 km/h
18.12.2018 3,3 C 84 % 1021,8 hPa 0,0 l/m 6,2 km/h SO 2,83 h 0,0 UV-I 97 W/m 13,8 km/h
19.12.2018 2,5 C 82 % 1012,9 hPa 0,2 l/m 5,8 km/h SO 0,58 h 0,0 UV-I 60 W/m 14,0 km/h
20.12.2018 4,5 C 87 % 1011,8 hPa 3,4 l/m 5,0 km/h S 0,00 h 0,0 UV-I 39 W/m 10,5 km/h
21.12.2018 7,1 C 83 % 1003,6 hPa 13,4 l/m 15,0 km/h SW 0,00 h 0,0 UV-I 20 W/m 28,4 km/h
22.12.2018 6,3 C 89 % 1009,6 hPa 19,6 l/m 13,4 km/h W-SW 0,00 h 0,0 UV-I 34 W/m 25,5 km/h
23.12.2018 5,2 C 89 % 1016,2 hPa 15,4 l/m 6,4 km/h W-SW 0,00 h 0,0 UV-I 26 W/m 12,7 km/h
24.12.2018 1,8 C 87 % 1025,9 hPa 3,0 l/m 5,3 km/h W-NW 0,25 h 0,0 UV-I 34 W/m 11,3 km/h
25.12.2018 2,3 C 85 % 1032,7 hPa 0,6 l/m 8,2 km/h W-SW 0,00 h 0,0 UV-I 38 W/m 16,0 km/h
26.12.2018 1,3 C 87 % 1030,8 hPa 0,8 l/m 4,9 km/h W-SW 0,00 h 0,0 UV-I 18 W/m 10,2 km/h
27.12.2018 1,1 C 86 % 1026,3 hPa 0,2 l/m 0,5 km/h SW 4,00 h 0,0 UV-I 101 W/m 1,6 km/h
28.12.2018 -1,0 C 86 % 1028,0 hPa 0,4 l/m 0,8 km/h SW 1,33 h 0,0 UV-I 76 W/m 2,2 km/h
29.12.2018 3,7 C 90 % 1027,3 hPa 5,8 l/m 9,6 km/h W-SW 0,00 h 0,0 UV-I 23 W/m 18,4 km/h
30.12.2018 4,8 C 89 % 1028,6 hPa 5,6 l/m 9,0 km/h W 0,00 h 0,0 UV-I 34 W/m 18,4 km/h
31.12.2018 6,4 C 91 % 1030,8 hPa 3,6 l/m 5,1 km/h W-SW 0,00 h 0,0 UV-I 32 W/m 10,6 km/h
Min-Datum 27.02.18 27.09.18 03.01.18 186 Tage 01.01.18 - - - - 01.01.18
Min-Zeit 08:15 15:15 08:55 - 19:50 - - - - 19:50
Minimum -12,8 C 20 % 983,7 hPa - 0,0 km/h - - - - 0,0 km/h
Max-Datum 07.08.18 01.06.18 25.09.18 10.07.18 18.01.18 - 30.06.18 29.07.18 25.06.18 18.01.18
Max-Zeit 15:15 07:55 12:00 17:25 12:25 - 20:35 13:40 12:15 12:45
Maximum 35,8 C 91 % 1038,8 hPa 25,0 l/m 47,2 km/h
W-SW
- 14,25 h 7,6 UV-I 1167 W/m 90,1 km/h
W-SW
Durchschnitt 10,2 C 71 % 1014,7 hPa #604,6 l/m 3,7 km/h W-SW #1780:33 h 1,9 UV-I 214 W/m 9,3 km/h

Durchschnitt Minimum Temp.5,3 C
Durchschnitt Maximum Temp.15,2 C